createdAt,value
2022-10-29T00:00:54.912Z,184.80
2022-10-29T00:03:22.017Z,174.68
2022-10-29T00:06:02.620Z,176.18
2022-10-29T00:08:30.949Z,175.95
2022-10-29T00:11:07.217Z,181.75
2022-10-29T00:13:34.266Z,177.23
2022-10-29T00:16:04.933Z,184.95
2022-10-29T00:18:31.437Z,190.00
2022-10-29T00:21:06.263Z,173.95
2022-10-29T00:23:32.930Z,191.55
2022-10-29T00:26:00.105Z,179.65
2022-10-29T00:28:27.741Z,188.52
2022-10-29T00:30:54.702Z,182.23
2022-10-29T00:33:21.793Z,191.13
2022-10-29T00:36:03.473Z,179.68
2022-10-29T00:38:32.579Z,182.57
2022-10-29T00:40:59.361Z,174.77
2022-10-29T00:43:26.791Z,185.32
2022-10-29T00:45:57.774Z,177.90
2022-10-29T00:48:27.634Z,176.07
2022-10-29T00:50:56.281Z,175.90
2022-10-29T00:53:28.719Z,173.93
2022-10-29T00:55:55.245Z,175.05
2022-10-29T00:58:22.001Z,181.13
2022-10-29T01:00:48.518Z,175.15
2022-10-29T01:03:15.079Z,181.15
2022-10-29T01:05:42.485Z,184.48
2022-10-29T01:08:09.105Z,183.63
2022-10-29T01:11:09.969Z,176.45
2022-10-29T01:13:47.637Z,171.18
2022-10-29T01:16:39.285Z,175.32
2022-10-29T01:19:40.714Z,176.93
2022-10-29T01:22:18.164Z,179.40
2022-10-29T01:25:21.647Z,175.98
2022-10-29T01:28:17.241Z,183.10
2022-10-29T01:31:00.801Z,174.43
2022-10-29T01:33:34.661Z,176.23
2022-10-29T01:36:16.141Z,182.93
2022-10-29T01:39:03.009Z,180.15
2022-10-29T01:41:54.209Z,173.63
2022-10-29T01:44:40.235Z,168.30
2022-10-29T01:47:15.312Z,174.65
2022-10-29T01:49:44.444Z,176.38
2022-10-29T01:52:15.380Z,184.88
2022-10-29T01:54:43.354Z,177.57
2022-10-29T01:57:33.131Z,179.25
2022-10-29T02:00:09.962Z,186.18
2022-10-29T02:02:48.374Z,176.50
2022-10-29T02:05:30.301Z,177.13
2022-10-29T02:08:23.576Z,173.18
2022-10-29T02:10:59.229Z,184.68
2022-10-29T02:13:31.866Z,187.70
2022-10-29T02:16:00.401Z,184.45
2022-10-29T02:18:27.051Z,190.73
2022-10-29T02:20:53.622Z,179.48
2022-10-29T02:23:20.154Z,180.15
2022-10-29T02:25:46.666Z,189.02
2022-10-29T02:28:13.349Z,189.95
2022-10-29T02:30:39.964Z,184.73
2022-10-29T02:33:06.451Z,195.18
2022-10-29T02:35:32.976Z,195.93
2022-10-29T02:37:59.526Z,192.95
2022-10-29T02:40:26.083Z,180.50
2022-10-29T02:42:52.753Z,186.60
2022-10-29T02:45:19.385Z,190.15
2022-10-29T02:47:45.944Z,193.48
2022-10-29T02:50:12.480Z,191.05
2022-10-29T02:52:40.034Z,195.88
2022-10-29T02:55:06.794Z,182.52
2022-10-29T02:57:33.283Z,186.38
2022-10-29T02:59:59.752Z,188.55
2022-10-29T03:02:29.187Z,181.77
2022-10-29T03:04:55.812Z,179.65
2022-10-29T03:07:22.300Z,184.25
2022-10-29T03:09:48.764Z,193.43
2022-10-29T03:12:15.254Z,190.45
2022-10-29T03:14:41.737Z,186.38
2022-10-29T03:17:08.422Z,185.85
2022-10-29T03:19:34.893Z,183.45
2022-10-29T03:22:01.404Z,186.05
2022-10-29T03:24:27.875Z,190.18
2022-10-29T03:26:54.456Z,181.68
2022-10-29T03:29:20.962Z,184.10
2022-10-29T03:31:47.537Z,189.27
2022-10-29T03:34:14.053Z,179.68
2022-10-29T03:36:40.523Z,185.18
2022-10-29T03:39:07.043Z,175.60
2022-10-29T03:41:33.520Z,174.55
2022-10-29T03:44:00.016Z,178.48
2022-10-29T03:46:26.612Z,180.07
2022-10-29T03:48:53.092Z,170.80
2022-10-29T03:51:19.582Z,184.20
2022-10-29T03:53:46.173Z,171.18
2022-10-29T03:56:12.665Z,182.52
2022-10-29T03:58:39.193Z,184.45
2022-10-29T04:01:08.195Z,182.85
2022-10-29T04:03:36.269Z,184.25
2022-10-29T04:06:10.360Z,191.02
2022-10-29T04:08:37.580Z,181.43
2022-10-29T04:11:04.538Z,186.18
2022-10-29T04:13:31.072Z,187.10
2022-10-29T04:15:57.620Z,188.52
2022-10-29T04:18:24.760Z,198.93
2022-10-29T04:29:11.253Z,198.40
2022-10-29T04:31:38.135Z,210.55
2022-10-29T04:34:05.024Z,204.10
2022-10-29T04:36:31.565Z,214.52
2022-10-29T04:38:58.063Z,209.45
2022-10-29T04:41:24.627Z,218.68
2022-10-29T04:43:51.137Z,204.82
2022-10-29T04:46:17.624Z,213.63
2022-10-29T04:48:44.190Z,204.27
2022-10-29T04:51:21.549Z,191.73
2022-10-29T04:53:48.303Z,189.02
2022-10-29T04:56:14.840Z,174.25
2022-10-29T04:58:41.393Z,182.05
2022-10-29T05:01:07.939Z,187.88
2022-10-29T05:03:34.956Z,195.88
2022-10-29T05:06:05.691Z,198.55
2022-10-29T05:08:32.662Z,193.43
2022-10-29T05:11:04.973Z,193.45
2022-10-29T05:13:32.413Z,196.48
2022-10-29T05:15:58.984Z,196.30
2022-10-29T05:18:25.762Z,193.57
2022-10-29T05:20:56.061Z,196.52
2022-10-29T05:23:22.593Z,191.98
2022-10-29T05:25:51.248Z,202.93
2022-10-29T05:28:22.253Z,199.02
2022-10-29T05:30:50.423Z,208.75
2022-10-29T05:33:24.721Z,201.80
2022-10-29T05:35:51.658Z,200.00
2022-10-29T05:38:18.251Z,190.35
2022-10-29T05:40:45.457Z,189.52
2022-10-29T05:43:16.399Z,191.38
2022-10-29T05:45:43.524Z,176.75
2022-10-29T05:50:38.881Z,206.57
2022-10-29T05:53:07.266Z,199.10
2022-10-29T05:55:37.280Z,187.25
2022-10-29T05:58:06.444Z,185.20
2022-10-29T06:00:35.580Z,199.52
2022-10-29T06:03:02.337Z,210.32
2022-10-29T06:05:29.243Z,211.50
2022-10-29T06:07:57.553Z,216.93
2022-10-29T06:10:25.354Z,232.18
2022-10-29T06:12:51.938Z,231.20
2022-10-29T06:15:18.743Z,246.95
2022-10-29T06:17:46.212Z,250.85
2022-10-29T06:20:14.336Z,255.05
2022-10-29T06:22:41.559Z,271.50
2022-10-29T06:25:09.996Z,281.27
2022-10-29T06:27:37.349Z,273.52
2022-10-29T06:30:05.037Z,264.83
2022-10-29T06:32:32.821Z,263.70
2022-10-29T06:34:59.316Z,275.13
2022-10-29T06:37:25.814Z,266.70
2022-10-29T06:39:52.313Z,271.52
2022-10-29T06:42:18.801Z,257.38
2022-10-29T06:44:45.316Z,274.92
2022-10-29T06:47:11.784Z,268.73
2022-10-29T06:49:38.318Z,265.58
2022-10-29T06:52:05.133Z,262.83
2022-10-29T06:54:31.633Z,262.13
2022-10-29T06:56:58.122Z,253.88
2022-10-29T06:59:24.624Z,251.90
2022-10-29T07:01:51.220Z,247.30
2022-10-29T07:04:18.542Z,258.25
2022-10-29T07:06:45.218Z,256.45
2022-10-29T07:09:11.749Z,253.65
2022-10-29T07:11:38.401Z,258.20
2022-10-29T07:14:06.024Z,245.07
2022-10-29T07:16:32.705Z,249.68
2022-10-29T07:18:59.472Z,246.13
2022-10-29T07:21:25.948Z,252.20
2022-10-29T07:23:52.479Z,255.00
2022-10-29T07:26:19.583Z,261.45
2022-10-29T07:28:46.184Z,253.77
2022-10-29T07:31:12.669Z,268.38
2022-10-29T07:33:39.174Z,272.73
2022-10-29T07:36:06.152Z,286.98
2022-10-29T07:38:32.639Z,281.98
2022-10-29T07:40:59.647Z,279.38
2022-10-29T07:43:26.149Z,284.42
2022-10-29T07:45:52.720Z,279.67
2022-10-29T07:48:20.430Z,286.55
2022-10-29T07:50:48.113Z,289.48
2022-10-29T07:53:14.677Z,288.38
2022-10-29T07:55:41.482Z,287.35
2022-10-29T07:58:11.417Z,281.33
2022-10-29T08:00:40.435Z,274.83
2022-10-29T08:03:07.508Z,280.52
2022-10-29T08:05:34.339Z,276.17
2022-10-29T08:08:01.060Z,263.50
2022-10-29T08:10:29.625Z,269.63
2022-10-29T08:13:00.989Z,263.38
2022-10-29T08:15:30.548Z,245.68
2022-10-29T08:17:57.331Z,246.55
2022-10-29T08:20:26.296Z,246.95
2022-10-29T08:22:52.796Z,242.40
2022-10-29T08:25:19.843Z,228.85
2022-10-29T08:27:46.408Z,230.13
2022-10-29T08:30:14.597Z,241.80
2022-10-29T08:32:47.116Z,249.90
2022-10-29T08:35:14.635Z,247.40
2022-10-29T08:37:45.268Z,234.43
2022-10-29T08:40:31.815Z,235.38
2022-10-29T08:43:19.424Z,232.88
2022-10-29T08:45:48.708Z,244.75
2022-10-29T08:48:33.567Z,252.23
2022-10-29T08:53:58.662Z,245.15
2022-10-29T08:56:38.262Z,255.25
2022-10-29T08:59:10.783Z,268.58
2022-10-29T09:01:38.068Z,264.27
2022-10-29T09:04:18.043Z,276.92
2022-10-29T09:07:03.225Z,270.85
2022-10-29T09:09:38.412Z,269.23
2022-10-29T09:12:04.845Z,254.60
2022-10-29T09:14:31.313Z,258.98
2022-10-29T09:17:03.177Z,243.50
2022-10-29T09:19:32.354Z,243.65
2022-10-29T09:22:21.805Z,254.77
2022-10-29T09:24:54.240Z,218.95
2022-10-29T09:27:26.581Z,221.90
2022-10-29T09:30:14.186Z,227.25
2022-10-29T09:32:56.401Z,235.68
2022-10-29T09:35:38.572Z,209.70
2022-10-29T09:38:19.019Z,197.07
2022-10-29T09:40:46.309Z,203.38
2022-10-29T09:43:21.768Z,212.70
2022-10-29T09:45:53.840Z,208.45
2022-10-29T09:48:36.580Z,216.65
2022-10-29T09:51:23.067Z,200.35
2022-10-29T09:53:51.257Z,180.38
2022-10-29T09:56:18.085Z,171.10
2022-10-29T09:58:49.558Z,150.90
2022-10-29T10:01:16.550Z,149.70
2022-10-29T10:03:47.299Z,146.57
2022-10-29T10:06:16.200Z,156.75
2022-10-29T10:09:04.585Z,151.13
2022-10-29T10:11:38.678Z,136.90
2022-10-29T10:14:17.960Z,129.82
2022-10-29T10:16:44.781Z,122.72
2022-10-29T10:19:26.910Z,123.72
2022-10-29T10:21:59.685Z,112.63
2022-10-29T10:24:37.406Z,109.78
2022-10-29T10:27:19.209Z,109.93
2022-10-29T10:30:04.516Z,106.40
2022-10-29T10:32:31.784Z,105.68
2022-10-29T10:34:58.288Z,116.25
2022-10-29T10:37:24.819Z,123.28
2022-10-29T10:40:00.302Z,137.07
2022-10-29T10:42:30.901Z,138.18
2022-10-29T10:45:03.570Z,125.00
2022-10-29T10:47:35.512Z,111.22
2022-10-29T10:50:18.915Z,119.57
2022-10-29T10:52:45.965Z,113.03
2022-10-29T10:55:50.624Z,138.68
2022-10-29T10:58:26.683Z,132.60
2022-10-29T11:01:18.994Z,138.88
2022-10-29T11:03:48.750Z,140.20
2022-10-29T11:06:16.997Z,139.35
2022-10-29T11:08:51.597Z,149.25
2022-10-29T11:13:50.605Z,124.57
2022-10-29T11:16:41.216Z,138.30
2022-10-29T11:19:28.519Z,137.95
2022-10-29T11:22:37.263Z,140.40
2022-10-29T11:25:16.086Z,141.48
2022-10-29T11:27:53.632Z,119.65
2022-10-29T11:30:20.922Z,126.22
2022-10-29T11:33:10.147Z,132.07
2022-10-29T11:35:55.003Z,95.93
2022-10-29T11:38:45.937Z,91.65
2022-10-29T11:41:38.193Z,97.32
2022-10-29T11:44:12.079Z,100.43
2022-10-29T11:46:49.319Z,117.88
2022-10-29T11:49:55.774Z,109.43
2022-10-29T11:52:33.258Z,96.40
2022-10-29T11:55:17.503Z,109.97
2022-10-29T11:57:59.122Z,113.70
2022-10-29T12:00:32.322Z,118.22
2022-10-29T12:03:18.468Z,125.75
2022-10-29T12:05:58.491Z,125.45
2022-10-29T12:08:48.316Z,117.50
2022-10-29T12:11:21.308Z,125.43
2022-10-29T12:13:50.391Z,135.07
2022-10-29T12:16:28.802Z,137.70
2022-10-29T12:19:18.282Z,145.48
2022-10-29T12:21:56.012Z,143.60
2022-10-29T12:24:46.594Z,147.90
2022-10-29T12:27:27.822Z,160.73
2022-10-29T12:30:05.550Z,148.23
2022-10-29T12:33:00.947Z,163.55
2022-10-29T12:35:55.509Z,163.25
2022-10-29T12:38:42.152Z,167.05
2022-10-29T12:41:21.929Z,179.43
2022-10-29T12:43:50.784Z,214.63
2022-10-29T12:46:43.470Z,219.57
2022-10-29T12:49:36.324Z,217.98
2022-10-29T12:52:10.165Z,198.10
2022-10-29T12:54:49.629Z,193.52
2022-10-29T12:57:16.062Z,177.52
2022-10-29T12:59:43.920Z,191.25
2022-10-29T13:02:30.369Z,197.77
2022-10-29T13:05:05.900Z,202.70
2022-10-29T13:07:33.957Z,199.10
2022-10-29T13:10:22.319Z,207.43
2022-10-29T13:13:13.702Z,179.50
2022-10-29T13:15:43.961Z,173.57
2022-10-29T13:18:31.682Z,183.00
2022-10-29T13:20:59.196Z,190.82
2022-10-29T13:23:27.494Z,179.38
2022-10-29T13:25:55.592Z,185.85
2022-10-29T13:28:22.030Z,183.48
2022-10-29T13:30:50.436Z,189.85
2022-10-29T13:33:26.134Z,191.82
2022-10-29T13:35:56.532Z,186.27
2022-10-29T13:38:51.912Z,183.07
2022-10-29T13:41:43.440Z,162.95
2022-10-29T13:44:11.912Z,177.50
2022-10-29T13:46:52.912Z,176.70
2022-10-29T13:49:24.623Z,188.80
2022-10-29T13:51:54.097Z,189.07
2022-10-29T13:54:30.427Z,222.02
2022-10-29T13:57:28.941Z,205.25
2022-10-29T14:00:15.726Z,192.32
2022-10-29T14:02:42.271Z,202.23
2022-10-29T14:05:14.685Z,206.82
2022-10-29T14:08:03.149Z,203.68
2022-10-29T14:10:34.740Z,200.23
2022-10-29T14:13:23.525Z,210.10
2022-10-29T14:16:06.310Z,192.80
2022-10-29T14:18:43.760Z,190.98
2022-10-29T14:21:21.617Z,193.15
2022-10-29T14:24:09.747Z,201.88
2022-10-29T14:26:39.418Z,194.68
2022-10-29T14:29:22.284Z,205.65
2022-10-29T14:32:07.797Z,203.90
2022-10-29T14:34:34.419Z,208.43
2022-10-29T14:37:14.831Z,214.35
2022-10-29T14:39:57.857Z,206.68
2022-10-29T14:42:41.046Z,201.60
2022-10-29T14:45:17.771Z,196.73
2022-10-29T14:47:50.234Z,202.13
2022-10-29T14:50:22.611Z,203.38
2022-10-29T14:52:55.863Z,199.52
2022-10-29T14:55:30.635Z,203.68
2022-10-29T14:58:05.396Z,202.93
2022-10-29T15:00:37.029Z,200.23
2022-10-29T15:03:06.153Z,203.10
2022-10-29T15:05:36.159Z,203.05
2022-10-29T15:08:08.771Z,205.43
2022-10-29T15:10:50.139Z,200.40
2022-10-29T15:13:36.837Z,199.15
2022-10-29T15:16:09.948Z,184.85
2022-10-29T15:18:38.140Z,196.65
2022-10-29T15:21:05.772Z,194.32
2022-10-29T15:23:35.480Z,197.82
2022-10-29T15:26:08.118Z,201.18
2022-10-29T15:28:40.095Z,191.05
2022-10-29T15:31:07.714Z,202.90
2022-10-29T15:33:36.021Z,203.27
2022-10-29T15:36:04.600Z,203.57
2022-10-29T15:38:31.151Z,214.20
2022-10-29T15:41:18.954Z,211.15
2022-10-29T15:43:57.434Z,197.23
2022-10-29T15:46:35.351Z,205.80
2022-10-29T15:49:01.831Z,210.77
2022-10-29T15:51:30.389Z,209.63
2022-10-29T15:53:58.965Z,215.60
2022-10-29T15:56:25.868Z,214.10
2022-10-29T15:58:53.384Z,212.27
2022-10-29T16:01:19.927Z,220.20
2022-10-29T16:03:46.609Z,224.35
2022-10-29T16:06:15.712Z,226.07
2022-10-29T16:08:48.197Z,229.98
2022-10-29T16:11:22.849Z,218.88
2022-10-29T16:13:54.668Z,221.15
2022-10-29T16:16:24.146Z,225.00
2022-10-29T16:18:51.469Z,225.15
2022-10-29T16:21:24.350Z,230.48
2022-10-29T16:23:51.635Z,224.65
2022-10-29T16:26:20.848Z,223.77
2022-10-29T16:28:47.733Z,224.88
2022-10-29T16:31:25.917Z,228.88
2022-10-29T16:33:55.313Z,223.27
2022-10-29T16:36:21.991Z,228.40
2022-10-29T16:38:48.560Z,229.75
2022-10-29T16:41:17.629Z,237.75
2022-10-29T16:43:44.683Z,242.80
2022-10-29T16:46:12.747Z,236.63
2022-10-29T16:48:39.937Z,245.63
2022-10-29T16:51:06.886Z,235.68
2022-10-29T16:53:33.751Z,240.48
2022-10-29T16:56:01.601Z,240.38
2022-10-29T16:58:28.319Z,246.20
2022-10-29T17:01:10.420Z,240.95
2022-10-29T17:03:39.068Z,243.43
2022-10-29T17:06:07.818Z,249.10
2022-10-29T17:08:36.126Z,250.48
2022-10-29T17:11:06.007Z,251.10
2022-10-29T17:13:34.122Z,251.05
2022-10-29T17:16:00.654Z,242.38
2022-10-29T17:18:27.138Z,247.65
2022-10-29T17:21:01.285Z,245.90
2022-10-29T17:23:29.054Z,239.55
2022-10-29T17:25:56.875Z,246.57
2022-10-29T17:28:25.117Z,243.80
2022-10-29T17:30:52.076Z,254.68
2022-10-29T17:33:19.349Z,256.30
2022-10-29T17:35:46.149Z,257.58
2022-10-29T17:38:13.090Z,259.50
2022-10-29T17:40:43.037Z,256.42
2022-10-29T17:43:09.631Z,254.40
2022-10-29T17:45:37.055Z,246.38
2022-10-29T17:48:03.753Z,257.42
2022-10-29T17:50:30.319Z,257.58
2022-10-29T17:52:57.969Z,260.23
2022-10-29T17:55:24.745Z,249.73
2022-10-29T17:57:51.278Z,253.73
2022-10-29T18:00:17.922Z,252.93
2022-10-29T18:02:44.543Z,253.95
2022-10-29T18:05:11.100Z,255.25
2022-10-29T18:07:37.619Z,258.00
2022-10-29T18:10:04.356Z,256.73
2022-10-29T18:12:30.894Z,261.17
2022-10-29T18:14:57.390Z,258.40
2022-10-29T18:17:24.032Z,257.17
2022-10-29T18:19:50.566Z,257.92
2022-10-29T18:22:17.070Z,252.90
2022-10-29T18:24:43.607Z,263.50
2022-10-29T18:27:10.103Z,262.00
2022-10-29T18:29:36.610Z,255.60
2022-10-29T18:32:03.283Z,259.83
2022-10-29T18:34:31.629Z,260.17
2022-10-29T18:36:58.228Z,259.98
2022-10-29T18:39:24.723Z,260.75
2022-10-29T18:41:51.215Z,254.68
2022-10-29T18:44:17.756Z,253.68
2022-10-29T18:46:44.313Z,259.75
2022-10-29T18:49:12.992Z,254.50
2022-10-29T18:51:39.893Z,248.43
2022-10-29T18:54:06.433Z,254.57
2022-10-29T18:56:32.928Z,253.52
2022-10-29T18:59:00.399Z,251.60
2022-10-29T19:01:31.408Z,252.32
2022-10-29T19:04:04.190Z,259.40
2022-10-29T19:06:33.363Z,249.88
2022-10-29T19:09:01.600Z,253.25
2022-10-29T19:11:29.234Z,261.75
2022-10-29T19:14:06.582Z,253.75
2022-10-29T19:16:33.952Z,249.10
2022-10-29T19:21:38.761Z,249.02
2022-10-29T19:24:06.521Z,252.57
2022-10-29T19:26:35.350Z,256.00
2022-10-29T19:29:03.245Z,258.05
2022-10-29T19:31:31.554Z,255.27
2022-10-29T19:34:00.644Z,252.93
2022-10-29T19:36:28.690Z,248.77
2022-10-29T19:38:55.812Z,253.27
2022-10-29T19:41:22.463Z,256.25
2022-10-29T19:43:49.211Z,255.40
2022-10-29T19:46:17.984Z,253.65
2022-10-29T19:48:49.401Z,257.63
2022-10-29T19:51:15.916Z,253.35
2022-10-29T19:53:42.404Z,266.92
2022-10-29T19:56:11.722Z,257.00
2022-10-29T19:58:38.514Z,251.00
2022-10-29T20:01:07.159Z,252.45
2022-10-29T20:03:33.694Z,246.77
2022-10-29T20:06:00.390Z,252.88
2022-10-29T20:08:27.465Z,251.40
2022-10-29T20:10:58.553Z,250.85
2022-10-29T20:13:26.398Z,242.57
2022-10-29T20:15:53.722Z,247.00
2022-10-29T20:18:20.856Z,242.02
2022-10-29T20:20:53.442Z,251.52
2022-10-29T20:23:19.999Z,250.23
2022-10-29T20:25:46.499Z,248.98
2022-10-29T20:28:13.255Z,249.63
2022-10-29T20:30:39.767Z,249.93
2022-10-29T20:33:06.272Z,244.38
2022-10-29T20:35:32.822Z,245.57
2022-10-29T20:37:59.660Z,251.98
2022-10-29T20:40:26.331Z,250.18
2022-10-29T20:42:52.889Z,253.18
2022-10-29T20:45:19.914Z,249.43
2022-10-29T20:47:46.667Z,258.52
2022-10-29T20:50:13.225Z,251.07
2022-10-29T20:52:42.248Z,253.82
2022-10-29T20:55:12.296Z,249.07
2022-10-29T20:57:38.813Z,255.38
2022-10-29T21:00:05.965Z,254.75
2022-10-29T21:02:32.530Z,256.20
2022-10-29T21:04:59.121Z,250.57
2022-10-29T21:07:25.601Z,258.58
2022-10-29T21:09:52.159Z,251.65
2022-10-29T21:12:18.672Z,260.65
2022-10-29T21:14:45.228Z,255.15
2022-10-29T21:17:11.764Z,256.58
2022-10-29T21:19:38.321Z,246.48
2022-10-29T21:22:04.861Z,256.35
2022-10-29T21:24:31.377Z,249.07
2022-10-29T21:26:57.862Z,254.65
2022-10-29T21:29:24.405Z,253.10
2022-10-29T21:31:50.897Z,255.65
2022-10-29T21:34:17.382Z,252.40
2022-10-29T21:36:43.952Z,252.57
2022-10-29T21:39:10.465Z,250.15
2022-10-29T21:41:36.953Z,252.73
2022-10-29T21:44:03.606Z,252.13
2022-10-29T21:46:30.083Z,242.70
2022-10-29T21:48:56.736Z,240.55
2022-10-29T21:51:23.274Z,247.77
2022-10-29T21:53:49.960Z,245.73
2022-10-29T21:56:16.564Z,243.80
2022-10-29T21:58:43.765Z,252.38
2022-10-29T22:01:12.891Z,244.38
2022-10-29T22:03:41.555Z,239.95
2022-10-29T22:06:16.531Z,249.85
2022-10-29T22:08:43.634Z,227.98
2022-10-29T22:11:11.424Z,237.30
2022-10-29T22:13:38.440Z,241.73
2022-10-29T22:16:06.979Z,238.98
2022-10-29T22:18:34.554Z,238.10
2022-10-29T22:21:03.793Z,228.80
2022-10-29T22:23:30.349Z,230.88
2022-10-29T22:25:56.870Z,233.13
2022-10-29T22:28:23.375Z,238.75
2022-10-29T22:30:57.196Z,235.77
2022-10-29T22:33:23.762Z,227.27
2022-10-29T22:35:50.237Z,225.02
2022-10-29T22:38:16.732Z,227.10
2022-10-29T22:40:43.226Z,222.88
2022-10-29T22:43:09.811Z,232.43
2022-10-29T22:45:36.302Z,225.95
2022-10-29T22:48:02.948Z,221.27
2022-10-29T22:50:29.561Z,224.90
2022-10-29T22:52:56.200Z,222.07
2022-10-29T22:55:22.993Z,227.27
2022-10-29T22:57:49.461Z,221.13
2022-10-29T23:00:16.038Z,216.23
2022-10-29T23:02:42.601Z,233.40
2022-10-29T23:05:09.163Z,223.68
2022-10-29T23:07:35.653Z,223.82
2022-10-29T23:10:02.137Z,225.23
2022-10-29T23:12:28.661Z,220.68
2022-10-29T23:14:55.131Z,225.02
2022-10-29T23:17:21.620Z,218.25
2022-10-29T23:19:48.096Z,218.63
2022-10-29T23:24:46.113Z,221.80
2022-10-29T23:27:12.594Z,222.20
2022-10-29T23:29:39.092Z,221.02
2022-10-29T23:32:05.610Z,215.18
2022-10-29T23:34:32.078Z,209.63
2022-10-29T23:37:00.426Z,214.05
2022-10-29T23:39:28.687Z,213.38
2022-10-29T23:41:55.155Z,216.43
2022-10-29T23:44:21.650Z,217.15
2022-10-29T23:46:48.158Z,213.23
2022-10-29T23:49:14.924Z,213.00
2022-10-29T23:51:41.473Z,211.25
2022-10-29T23:54:07.981Z,216.10
2022-10-29T23:56:34.462Z,204.85
2022-10-29T23:59:00.940Z,209.50
